Time;durP1;ratioP1;P1;durP2;ratioP2;P2;SDS_P1;SDS_P2;PMS_P1;PMS_P2;Temp;Humidity;BMP_temperature;BMP_pressure;BME280_temperature;BME280_humidity;BME280_pressure;Samples;Min_cycle;Max_cycle;Signal;HPM_P1;HPM_P2
2022/02/03 00:02:32;;;;;;;;;;;;;;;-144.99;100.00;52623.38;5052395;28;19973;-71
2022/02/03 00:05:04;;;;;;;;;;;;;;;-144.99;100.00;52656.00;5053802;28;19963;-69
2022/02/03 00:07:41;;;;;;;;;;;;;;;-144.99;100.00;52704.94;5053090;28;20365;-70
2022/02/03 00:24:16;;;;;;;;;;;;;;;-144.99;100.00;52617.28;5024199;28;20146;-68
2022/02/03 00:26:51;;;;;;;;;;;;;;;-144.99;100.00;52615.25;5035656;28;19957;-69
2022/02/03 00:29:34;;;;;;;;;;;;;;;-144.99;100.00;52637.66;5038141;28;19955;-68
2022/02/03 00:32:07;;;;;;;;;;;;;;;-144.99;100.00;52607.09;5037552;28;19950;-69
2022/02/03 00:34:45;;;;;;;;;;;;;;;-144.99;100.00;52619.31;5036295;28;20411;-69
2022/02/03 00:37:18;;;;;;;;;;;;;;;-144.99;100.00;52635.63;5034209;28;19942;-69
2022/02/03 00:48:23;;;;;;;;;;;;;;;-144.99;100.00;52598.94;5037254;28;19974;-68
2022/02/03 00:50:51;;;;;;;;;;;;;;;-144.99;100.00;52639.69;5035971;28;19959;-68
2022/02/03 00:53:20;;;;;;;;;;;;;;;-144.99;100.00;52623.38;5035308;28;20350;-69
2022/02/03 00:55:52;;;;;;;;;;;;;;;-144.99;100.00;52668.22;5036394;28;20371;-69
2022/02/03 00:58:23;;;;;;;;;;;;;;;-144.99;100.00;52639.69;5036773;28;19959;-68
2022/02/03 01:00:51;;;;;;;;;;;;;;;-144.99;100.00;52619.31;5035313;28;20024;-69
2022/02/03 01:03:19;;;;;;;;;;;;;;;-144.99;100.00;52623.38;5035659;28;19985;-68
2022/02/03 01:05:47;;;;;;;;;;;;;;;-144.99;100.00;52645.81;5035196;28;20564;-70
2022/02/03 01:08:18;;;;;;;;;;;;;;;-144.99;100.00;52684.53;5039516;28;19958;-69
2022/02/03 01:10:49;;;;;;;;;;;;;;;-144.99;100.00;52619.31;5045161;28;19954;-68
2022/02/03 01:13:33;;;;;;;;;;;;;;;-144.99;100.00;52643.78;5034854;28;20508;-69
2022/02/03 01:16:09;;;;;;;;;;;;;;;-144.99;100.00;52615.25;5035288;28;19964;-68
2022/02/03 01:19:07;;;;;;;;;;;;;;;-144.99;100.00;52635.63;5035276;28;19957;-68
2022/02/03 01:21:58;;;;;;;;;;;;;;;-144.99;100.00;52607.09;5037945;28;19980;-68
2022/02/03 01:43:46;;;;;;;;;;;;;;;-144.99;100.00;52635.63;5033572;28;20357;-68
2022/02/03 01:46:17;;;;;;;;;;;;;;;-144.99;100.00;52607.09;5033550;28;20027;-68
2022/02/03 01:49:05;;;;;;;;;;;;;;;-144.99;100.00;52623.38;5039852;28;19976;-68
2022/02/03 01:51:42;;;;;;;;;;;;;;;-144.99;100.00;52607.09;5032994;28;20390;-68
2022/02/03 01:54:14;;;;;;;;;;;;;;;-144.99;100.00;52609.13;5032084;28;19966;-70
2022/02/03 01:56:41;;;;;;;;;;;;;;;-144.99;100.00;52615.25;5033675;28;20053;-68
2022/02/03 01:59:21;;;;;;;;;;;;;;;-144.99;100.00;52596.88;5032132;28;20358;-68
2022/02/03 02:01:51;;;;;;;;;;;;;;;-144.99;100.00;52603.00;5032182;28;20317;-70
2022/02/03 02:04:27;;;;;;;;;;;;;;;-144.99;100.00;52590.78;5032499;28;19967;-69
2022/02/03 02:07:11;;;;;;;;;;;;;;;-144.99;100.00;52607.09;5048754;28;19965;-71
2022/02/03 02:09:50;;;;;;;;;;;;;;;-144.99;100.00;52627.47;5063664;28;19988;-70
2022/02/03 02:12:26;;;;;;;;;;;;;;;-144.99;100.00;52627.47;5042967;28;19956;-69
2022/02/03 02:37:38;;;;;;;;;;;;;;;-144.99;100.00;52631.53;5032098;28;20138;-69
2022/02/03 02:40:29;;;;;;;;;;;;;;;-144.99;100.00;52611.16;5039904;28;20330;-69
2022/02/03 02:42:59;;;;;;;;;;;;;;;-144.99;100.00;52615.25;5035842;28;19971;-69
2022/02/03 02:45:31;;;;;;;;;;;;;;;-144.99;100.00;52598.94;5033604;28;19978;-69
2022/02/03 02:48:05;;;;;;;;;;;;;;;-144.99;100.00;52578.53;5035152;28;19954;-69
2022/02/03 02:50:43;;;;;;;;;;;;;;;-144.99;100.00;52627.47;5034548;28;20010;-69
2022/02/03 02:53:21;;;;;;;;;;;;;;;-144.99;100.00;52598.94;5034232;28;20041;-69
2022/02/03 02:55:58;;;;;;;;;;;;;;;-144.99;100.00;52611.16;5034596;28;20341;-69
2022/02/03 03:04:25;;;;;;;;;;;;;;;-144.99;100.00;52623.38;5032399;28;20287;-68
2022/02/03 03:34:46;;;;;;;;;;;;;;;-144.99;100.00;52623.38;5020368;28;20042;-69
2022/02/03 03:37:17;;;;;;;;;;;;;;;-144.99;100.00;52586.69;5033102;28;19964;-70
2022/02/03 03:39:49;;;;;;;;;;;;;;;-144.99;100.00;52582.63;5033932;28;19944;-69
2022/02/03 03:42:15;;;;;;;;;;;;;;;-144.99;100.00;52582.63;5033936;28;19952;-69
2022/02/03 03:44:42;;;;;;;;;;;;;;;-144.99;100.00;52598.94;5033119;28;19993;-71
2022/02/03 03:47:13;;;;;;;;;;;;;;;-144.99;100.00;52621.34;5034234;28;20399;-67
2022/02/03 03:49:45;;;;;;;;;;;;;;;-144.99;100.00;52603.00;5045010;23;20120;-57
2022/02/03 03:52:17;;;;;;;;;;;;;;;-144.99;100.00;52603.00;5029355;28;19943;-58
2022/02/03 03:54:53;;;;;;;;;;;;;;;-144.99;100.00;52653.97;5014045;28;19997;-58
2022/02/03 03:57:37;;;;;;;;;;;;;;;-144.99;100.00;52594.84;5012233;28;19968;-60
2022/02/03 04:00:27;;;;;;;;;;;;;;;-144.99;100.00;52633.59;5011708;28;19962;-59
2022/02/03 04:29:13;;;;;;;;;;;;;;;-144.99;100.00;52603.00;5011569;28;20117;-60
2022/02/03 04:35:25;;;;;;;;;;;;;;;-144.99;100.00;52562.25;4968788;28;20029;-57
2022/02/03 04:38:05;;;;;;;;;;;;;;;-144.99;100.00;52623.38;5011393;28;20012;-57
2022/02/03 04:44:15;;;;;;;;;;;;;;;-144.99;100.00;52607.09;4998111;28;20001;-57
2022/02/03 04:59:16;;;;;;;;;;;;;;;-144.99;100.00;52639.69;5148622;27;19972;-61
2022/02/03 05:02:07;;;;;;;;;;;;;;;-144.99;100.00;52598.94;5148013;27;19973;-59
2022/02/03 05:04:49;;;;;;;;;;;;;;;-144.99;100.00;52598.94;5127634;28;19983;-60
2022/02/03 05:07:36;;;;;;;;;;;;;;;-144.99;100.00;52615.25;5123941;27;19970;-58
2022/02/03 05:10:20;;;;;;;;;;;;;;;-144.99;100.00;52627.47;5104513;28;19967;-59
2022/02/03 05:13:14;;;;;;;;;;;;;;;-144.99;100.00;52623.38;5111459;27;20042;-58
2022/02/03 05:16:11;;;;;;;;;;;;;;;-144.99;100.00;52594.84;5099876;28;19976;-59
2022/02/03 05:22:57;;;;;;;;;;;;;;;-144.99;100.00;52619.31;5056892;28;19976;-59
2022/02/03 05:25:44;;;;;;;;;;;;;;;-144.99;100.00;52651.94;5126154;28;20064;-60
2022/02/03 05:43:17;;;;;;;;;;;;;;;-144.99;100.00;52611.16;5127351;28;20377;-57
2022/02/03 05:46:02;;;;;;;;;;;;;;;-144.99;100.00;52578.53;5126374;27;20005;-59
2022/02/03 06:02:42;;;;;;;;;;;;;;;-144.99;100.00;52631.53;5126666;28;19983;-60
2022/02/03 06:05:15;;;;;;;;;;;;;;;-144.99;100.00;52623.38;5125569;28;19978;-59
2022/02/03 06:07:58;;;;;;;;;;;;;;;-144.99;100.00;52586.69;5106773;28;20209;-59
2022/02/03 06:13:14;;;;;;;;;;;;;;;-144.99;100.00;52598.94;5112819;28;19996;-58
2022/02/03 06:16:04;;;;;;;;;;;;;;;-144.99;100.00;52594.84;5112980;28;20091;-59
2022/02/03 06:21:26;;;;;;;;;;;;;;;-144.99;100.00;52600.97;5110495;28;20108;-60
2022/02/03 06:24:01;;;;;;;;;;;;;;;-144.99;100.00;52554.09;5088050;28;19998;-58
2022/02/03 06:29:16;;;;;;;;;;;;;;;-144.99;100.00;52617.28;5113347;28;20452;-61
2022/02/03 06:31:43;;;;;;;;;;;;;;;-144.99;100.00;52558.16;5112756;28;19986;-60
2022/02/03 06:34:10;;;;;;;;;;;;;;;-144.99;100.00;52603.00;5112598;28;19994;-59
2022/02/03 06:36:39;;;;;;;;;;;;;;;-144.99;100.00;52594.84;5102529;28;19984;-59
2022/02/03 06:39:12;;;;;;;;;;;;;;;-144.99;100.00;52586.69;5093284;28;19975;-59
2022/02/03 06:41:39;;;;;;;;;;;;;;;-144.99;100.00;52590.78;5095938;28;19973;-60
2022/02/03 06:44:05;;;;;;;;;;;;;;;-144.99;100.00;52631.53;5113861;28;19987;-59
2022/02/03 06:46:32;;;;;;;;;;;;;;;-144.99;100.00;52600.97;5113362;28;19978;-59
2022/02/03 06:49:09;;;;;;;;;;;;;;;-144.99;100.00;52623.38;5113722;28;20237;-58
2022/02/03 06:51:43;;;;;;;;;;;;;;;-144.99;100.00;52598.94;5114164;28;20055;-58
2022/02/03 06:54:18;;;;;;;;;;;;;;;-144.99;100.00;52586.69;5113133;28;19998;-59
2022/02/03 06:56:51;;;;;;;;;;;;;;;-144.99;100.00;52582.63;5113289;28;20362;-59
2022/02/03 06:59:24;;;;;;;;;;;;;;;-144.99;100.00;52590.78;5113979;28;20151;-58
2022/02/03 07:01:50;;;;;;;;;;;;;;;-144.99;100.00;52605.03;5112855;28;20063;-58
2022/02/03 07:04:20;;;;;;;;;;;;;;;-144.99;100.00;52574.47;5113042;28;19989;-58
2022/02/03 07:06:47;;;;;;;;;;;;;;;-144.99;100.00;52619.31;5097191;28;19998;-59
2022/02/03 07:09:14;;;;;;;;;;;;;;;-144.99;100.00;52570.38;5095068;28;19976;-61
2022/02/03 07:11:42;;;;;;;;;;;;;;;-144.99;100.00;52578.53;5097350;28;20001;-59
2022/02/03 07:14:10;;;;;;;;;;;;;;;-144.99;100.00;52605.03;5112119;28;19985;-59
2022/02/03 07:16:45;;;;;;;;;;;;;;;-144.99;100.00;52615.25;5111681;28;19976;-59
2022/02/03 07:19:11;;;;;;;;;;;;;;;-144.99;100.00;52586.69;5112072;28;20018;-58
2022/02/03 07:21:40;;;;;;;;;;;;;;;-144.99;100.00;52603.00;5105391;28;20021;-59
2022/02/03 07:24:07;;;;;;;;;;;;;;;-144.99;100.00;52578.53;5100239;28;20004;-59
2022/02/03 07:26:35;;;;;;;;;;;;;;;-144.99;100.00;52576.50;5111263;28;19968;-58
2022/02/03 07:29:01;;;;;;;;;;;;;;;-144.99;100.00;52600.97;5111509;28;19973;-60
2022/02/03 07:31:28;;;;;;;;;;;;;;;-144.99;100.00;52590.78;5111002;28;19968;-60
2022/02/03 07:33:55;;;;;;;;;;;;;;;-144.99;100.00;52590.78;5111324;28;20031;-59
2022/02/03 07:36:21;;;;;;;;;;;;;;;-144.99;100.00;52627.47;5110993;28;20435;-60
2022/02/03 07:38:47;;;;;;;;;;;;;;;-144.99;100.00;52594.84;5111579;28;19964;-59
2022/02/03 07:41:14;;;;;;;;;;;;;;;-144.99;100.00;52545.94;5111223;28;20194;-62
2022/02/03 07:43:41;;;;;;;;;;;;;;;-144.99;100.00;52615.25;5111418;28;20340;-58
2022/02/03 07:46:09;;;;;;;;;;;;;;;-144.99;100.00;52598.94;5110880;28;20339;-62
2022/02/03 07:48:36;;;;;;;;;;;;;;;-144.99;100.00;52566.31;5101514;28;20322;-61
2022/02/03 07:51:02;;;;;;;;;;;;;;;-144.99;100.00;52590.78;5102640;28;19982;-60
2022/02/03 07:53:28;;;;;;;;;;;;;;;-144.99;100.00;52562.25;5111356;28;20058;-60
2022/02/03 07:55:55;;;;;;;;;;;;;;;-144.99;100.00;52603.00;5111975;28;19958;-59
2022/02/03 07:58:21;;;;;;;;;;;;;;;-144.99;100.00;52543.91;5111132;28;20354;-59
2022/02/03 08:00:49;;;;;;;;;;;;;;;-144.99;100.00;52566.31;5111206;28;19964;-60
2022/02/03 08:03:15;;;;;;;;;;;;;;;-144.99;100.00;52574.47;5110820;28;20101;-61
2022/02/03 08:05:45;;;;;;;;;;;;;;;-144.99;100.00;52586.69;5110747;28;20316;-60
2022/02/03 08:08:19;;;;;;;;;;;;;;;-144.99;100.00;52619.31;5099273;28;20315;-58
2022/02/03 08:10:49;;;;;;;;;;;;;;;-144.99;100.00;52586.69;5100001;28;20000;-58
2022/02/03 08:13:20;;;;;;;;;;;;;;;-144.99;100.00;52611.16;5110640;28;19977;-58
2022/02/03 08:15:49;;;;;;;;;;;;;;;-144.99;100.00;52584.66;5085155;28;19954;-60
2022/02/03 08:18:19;;;;;;;;;;;;;;;-144.99;100.00;52582.63;5110328;28;20064;-58
2022/02/03 08:20:51;;;;;;;;;;;;;;;-144.99;100.00;52586.69;5110693;28;20065;-59
2022/02/03 08:23:43;;;;;;;;;;;;;;;-144.99;100.00;52545.94;5094958;28;20061;-59
2022/02/03 08:26:18;;;;;;;;;;;;;;;-144.99;100.00;52619.31;5111497;28;20337;-58
2022/02/03 08:29:09;;;;;;;;;;;;;;;-144.99;100.00;52576.50;5103318;28;19954;-59
2022/02/03 08:31:41;;;;;;;;;;;;;;;-144.99;100.00;52582.63;5094819;28;19947;-58
2022/02/03 08:34:13;;;;;;;;;;;;;;;-144.99;100.00;52570.38;5111209;28;19976;-59
2022/02/03 08:36:40;;;;;;;;;;;;;;;-144.99;100.00;52570.38;5101222;28;19942;-57
2022/02/03 08:39:10;;;;;;;;;;;;;;;-144.99;100.00;52603.00;5093138;28;19973;-58
2022/02/03 08:41:36;;;;;;;;;;;;;;;-144.99;100.00;52574.47;5095032;28;19956;-58
2022/02/03 08:44:02;;;;;;;;;;;;;;;-144.99;100.00;52603.00;5112399;28;20034;-59
2022/02/03 08:46:29;;;;;;;;;;;;;;;-144.99;100.00;52582.63;5111529;28;19948;-58
2022/02/03 08:48:57;;;;;;;;;;;;;;;-144.99;100.00;52570.38;5110367;28;19948;-59
2022/02/03 08:51:25;;;;;;;;;;;;;;;-144.99;100.00;52566.31;5109674;28;19943;-59
2022/02/03 08:53:54;;;;;;;;;;;;;;;-144.99;100.00;52572.44;5110066;28;20016;-59
2022/02/03 08:56:29;;;;;;;;;;;;;;;-144.99;100.00;52594.84;5110322;28;19944;-59
2022/02/03 08:59:17;;;;;;;;;;;;;;;-144.99;100.00;52527.59;5110641;28;19967;-59
2022/02/03 09:35:26;;;;;;;;;;;;;;;-144.99;100.00;52578.53;5109138;28;19971;-58
2022/02/03 09:54:45;;;;;;;;;;;;;;;-144.99;100.00;52537.78;5083674;28;20007;-59
2022/02/03 10:00:01;;;;;;;;;;;;;;;-144.99;100.00;52560.19;5106450;28;20125;-58
2022/02/03 10:02:30;;;;;;;;;;;;;;;-144.99;100.00;52562.25;5107123;28;20000;-58
2022/02/03 10:05:01;;;;;;;;;;;;;;;-144.99;100.00;52547.97;5106629;28;20042;-59
2022/02/03 10:07:32;;;;;;;;;;;;;;;-144.99;100.00;52570.38;5107138;28;19991;-59
2022/02/03 10:10:00;;;;;;;;;;;;;;;-144.99;100.00;52562.25;5106983;28;20242;-61
2022/02/03 10:12:29;;;;;;;;;;;;;;;-144.99;100.00;52513.31;5094310;28;19977;-59
2022/02/03 10:14:57;;;;;;;;;;;;;;;-144.99;100.00;52517.41;5106436;28;20187;-59
2022/02/03 10:17:32;;;;;;;;;;;;;;;-144.99;100.00;52525.56;5107559;28;19964;-59
2022/02/03 10:19:59;;;;;;;;;;;;;;;-144.99;100.00;52525.56;5106922;28;19968;-59
2022/02/03 10:22:27;;;;;;;;;;;;;;;-144.99;100.00;52525.56;5106969;28;19978;-59
2022/02/03 10:25:00;;;;;;;;;;;;;;;-144.99;100.00;52554.09;5107127;28;20029;-62
2022/02/03 10:27:31;;;;;;;;;;;;;;;-144.99;100.00;52560.19;5107534;28;19950;-59
2022/02/03 10:30:13;;;;;;;;;;;;;;;-144.99;100.00;52558.16;5106861;28;19964;-62
2022/02/03 10:32:41;;;;;;;;;;;;;;;-144.99;100.00;52562.25;5107196;28;19970;-60
2022/02/03 10:35:18;;;;;;;;;;;;;;;-144.99;100.00;52531.66;5105827;28;19949;-59
2022/02/03 10:37:49;;;;;;;;;;;;;;;-144.99;100.00;52570.38;5099063;28;20368;-59
2022/02/03 10:40:41;;;;;;;;;;;;;;;-144.99;100.00;52550.00;5101536;28;19948;-59
2022/02/03 10:43:32;;;;;;;;;;;;;;;-144.99;100.00;52560.19;5107326;28;19968;-59
2022/02/03 10:46:39;;;;;;;;;;;;;;;-144.99;100.00;52586.69;5106284;28;20045;-61
2022/02/03 10:49:20;;;;;;;;;;;;;;;-144.99;100.00;52523.50;5106590;28;20390;-59
2022/02/03 10:52:17;;;;;;;;;;;;;;;-144.99;100.00;52560.19;5106345;28;19948;-60
2022/02/03 10:55:06;;;;;;;;;;;;;;;-144.99;100.00;52574.47;5081911;28;20005;-60
2022/02/03 10:58:02;;;;;;;;;;;;;;;-144.99;100.00;52523.50;5092661;28;20354;-61
2022/02/03 11:03:22;;;;;;;;;;;;;;;-144.99;100.00;52547.97;5090111;28;19974;-60
2022/02/03 11:08:38;;;;;;;;;;;;;;;-144.99;100.00;52501.09;5089934;28;20101;-60
2022/02/03 11:11:12;;;;;;;;;;;;;;;-144.99;100.00;52543.91;5092680;28;19985;-60
2022/02/03 11:13:42;;;;;;;;;;;;;;;-144.99;100.00;52574.47;5092970;28;19967;-59
2022/02/03 11:16:10;;;;;;;;;;;;;;;-144.99;100.00;52537.78;5092381;28;20350;-61
2022/02/03 11:18:38;;;;;;;;;;;;;;;-144.99;100.00;52552.03;5093198;28;19953;-60
2022/02/03 11:21:05;;;;;;;;;;;;;;;-144.99;100.00;52574.47;5092177;28;19963;-62
2022/02/03 11:23:37;;;;;;;;;;;;;;;-144.99;100.00;52529.63;5091990;28;20065;-60
2022/02/03 11:26:13;;;;;;;;;;;;;;;-144.99;100.00;52547.97;5092633;28;19977;-63
2022/02/03 11:31:51;;;;;;;;;;;;;;;-144.99;100.00;52550.00;5078518;28;19960;-60
2022/02/03 11:37:29;;;;;;;;;;;;;;;-144.99;100.00;52541.84;5086740;28;19970;-62
2022/02/03 11:43:24;;;;;;;;;;;;;;;-144.99;100.00;52564.28;5092140;28;20029;-60
2022/02/03 11:46:30;;;;;;;;;;;;;;;-144.99;100.00;52552.03;5092120;28;20049;-61
2022/02/03 11:52:18;;;;;;;;;;;;;;;-144.99;100.00;52562.25;5048414;28;20047;-61
2022/02/03 11:55:18;;;;;;;;;;;;;;;-144.99;100.00;52562.25;5037842;28;19983;-60
2022/02/03 11:58:31;;;;;;;;;;;;;;;-144.99;100.00;52554.09;5084030;28;19957;-61
2022/02/03 12:07:08;;;;;;;;;;;;;;;-144.99;100.00;52545.94;5068983;28;19961;-61
2022/02/03 12:18:04;;;;;;;;;;;;;;;-144.99;100.00;52537.78;5091683;28;19965;-61
2022/02/03 12:20:33;;;;;;;;;;;;;;;-144.99;100.00;52505.16;5091408;28;20085;-62
2022/02/03 12:23:08;;;;;;;;;;;;;;;-144.99;100.00;52570.38;5091023;28;20418;-60
2022/02/03 12:25:50;;;;;;;;;;;;;;;-144.99;100.00;52537.78;5091421;28;19952;-62
2022/02/03 12:28:31;;;;;;;;;;;;;;;-144.99;100.00;52537.78;5091101;28;20005;-60
2022/02/03 12:39:24;;;;;;;;;;;;;;;-144.99;100.00;52603.00;5084138;28;19971;-62
2022/02/03 12:42:06;;;;;;;;;;;;;;;-144.99;100.00;52541.84;5091054;28;19957;-62
2022/02/03 12:44:36;;;;;;;;;;;;;;;-144.99;100.00;52592.81;5090869;28;20355;-61
2022/02/03 12:47:05;;;;;;;;;;;;;;;-144.99;100.00;52558.16;5090592;28;19952;-62
2022/02/03 12:49:32;;;;;;;;;;;;;;;-144.99;100.00;52572.44;5090796;28;20495;-61
2022/02/03 12:51:59;;;;;;;;;;;;;;;-144.99;100.00;52562.25;5090945;28;20423;-62
2022/02/03 12:54:25;;;;;;;;;;;;;;;-144.99;100.00;52554.09;5090558;28;19971;-61
2022/02/03 12:57:01;;;;;;;;;;;;;;;-144.99;100.00;52580.59;5090928;28;19956;-62
2022/02/03 12:59:29;;;;;;;;;;;;;;;-144.99;100.00;52574.47;5091271;28;19954;-61
2022/02/03 13:01:55;;;;;;;;;;;;;;;-144.99;100.00;52517.41;5090800;28;19965;-60
2022/02/03 13:04:23;;;;;;;;;;;;;;;-144.99;100.00;52558.16;5091137;28;19976;-61
2022/02/03 13:07:00;;;;;;;;;;;;;;;-144.99;100.00;52562.25;5090562;28;19954;-60
2022/02/03 13:09:34;;;;;;;;;;;;;;;-144.99;100.00;52570.38;5090201;28;19960;-60
2022/02/03 13:12:14;;;;;;;;;;;;;;;-144.99;100.00;52545.94;5084028;28;20178;-60
2022/02/03 13:14:47;;;;;;;;;;;;;;;-144.99;100.00;52527.59;5090133;28;20198;-62
2022/02/03 13:17:20;;;;;;;;;;;;;;;-144.99;100.00;52529.63;5090196;28;20345;-62
2022/02/03 13:19:54;;;;;;;;;;;;;;;-144.99;100.00;52525.56;5089703;28;19995;-61
2022/02/03 13:22:30;;;;;;;;;;;;;;;-144.99;100.00;52562.25;5090090;28;19970;-61
2022/02/03 13:25:07;;;;;;;;;;;;;;;-144.99;100.00;52556.13;5090348;28;20359;-61
2022/02/03 13:27:44;;;;;;;;;;;;;;;-144.99;100.00;52578.53;5090145;28;19993;-60
2022/02/03 13:30:28;;;;;;;;;;;;;;;-144.99;100.00;52562.25;5089822;28;19962;-61
2022/02/03 13:32:59;;;;;;;;;;;;;;;-144.99;100.00;52558.16;5089856;28;20063;-61
2022/02/03 13:35:30;;;;;;;;;;;;;;;-144.99;100.00;52545.94;5089362;28;20346;-59
2022/02/03 13:38:00;;;;;;;;;;;;;;;-144.99;100.00;52521.47;5090594;28;19979;-61
2022/02/03 13:40:28;;;;;;;;;;;;;;;-144.99;100.00;52550.00;5090325;28;19948;-61
2022/02/03 13:43:08;;;;;;;;;;;;;;;-144.99;100.00;52562.25;5089581;28;19992;-59
2022/02/03 13:45:36;;;;;;;;;;;;;;;-144.99;100.00;52554.09;5088264;28;19957;-59
2022/02/03 13:48:13;;;;;;;;;;;;;;;-144.99;100.00;52533.69;5074262;28;19948;-61
2022/02/03 13:50:40;;;;;;;;;;;;;;;-144.99;100.00;52586.69;5089304;28;19952;-60
2022/02/03 13:53:14;;;;;;;;;;;;;;;-144.99;100.00;52515.34;5090298;28;20419;-59
2022/02/03 14:15:14;;;;;;;;;;;;;;;-144.99;100.00;52554.09;5089123;28;19948;-60
2022/02/03 14:20:41;;;;;;;;;;;;;;;-144.99;100.00;52570.38;5075639;28;19924;-58
2022/02/03 14:28:42;;;;;;;;;;;;;;;-144.99;100.00;52586.69;5078946;28;19952;-63
2022/02/03 14:31:10;;;;;;;;;;;;;;;-144.99;100.00;52556.13;5093246;28;20416;-61
2022/02/03 14:33:39;;;;;;;;;;;;;;;-144.99;100.00;52558.16;5093318;28;19968;-60
2022/02/03 14:36:08;;;;;;;;;;;;;;;-144.99;100.00;52574.47;5092809;28;19995;-59
2022/02/03 14:38:41;;;;;;;;;;;;;;;-144.99;100.00;52558.16;5093793;28;19951;-61
2022/02/03 14:41:14;;;;;;;;;;;;;;;-144.99;100.00;52558.16;5092857;28;19978;-60
2022/02/03 14:43:40;;;;;;;;;;;;;;;-144.99;100.00;52533.69;5093177;28;20519;-61
2022/02/03 14:46:12;;;;;;;;;;;;;;;-144.99;100.00;52576.50;5093037;28;19967;-60
2022/02/03 14:48:43;;;;;;;;;;;;;;;-144.99;100.00;52611.16;5093582;28;19973;-61
2022/02/03 14:51:11;;;;;;;;;;;;;;;-144.99;100.00;52554.09;5079693;28;20321;-60
2022/02/03 14:53:50;;;;;;;;;;;;;;;-144.99;100.00;52582.63;5093561;28;19971;-62
2022/02/03 14:59:01;;;;;;;;;;;;;;;-144.99;100.00;52578.53;5093258;28;19958;-59
2022/02/03 15:01:28;;;;;;;;;;;;;;;-144.99;100.00;52578.53;5092918;28;19959;-60
2022/02/03 15:03:58;;;;;;;;;;;;;;;-144.99;100.00;52533.69;5092526;28;19978;-60
2022/02/03 15:06:27;;;;;;;;;;;;;;;-144.99;100.00;52598.94;5092761;28;20044;-61
2022/02/03 15:09:09;;;;;;;;;;;;;;;-144.99;100.00;52574.47;5090188;28;20031;-60
2022/02/03 15:11:54;;;;;;;;;;;;;;;-144.99;100.00;52574.47;5092790;28;19954;-61
2022/02/03 15:14:20;;;;;;;;;;;;;;;-144.99;100.00;52527.59;5080951;28;20367;-61
2022/02/03 15:16:50;;;;;;;;;;;;;;;-144.99;100.00;52576.50;5092539;28;19931;-59
2022/02/03 15:19:18;;;;;;;;;;;;;;;-144.99;100.00;52564.28;5092850;28;19959;-60
2022/02/03 15:21:44;;;;;;;;;;;;;;;-144.99;100.00;52580.59;5091952;28;20337;-60
2022/02/03 15:24:10;;;;;;;;;;;;;;;-144.99;100.00;52525.56;5091987;28;20077;-59
2022/02/03 15:26:40;;;;;;;;;;;;;;;-144.99;100.00;52578.53;5092373;28;20437;-60
2022/02/03 15:29:07;;;;;;;;;;;;;;;-144.99;100.00;52598.94;5092667;28;20516;-59
2022/02/03 15:31:34;;;;;;;;;;;;;;;-144.99;100.00;52570.38;5092805;28;20067;-60
2022/02/03 15:34:07;;;;;;;;;;;;;;;-144.99;100.00;52566.31;5092468;28;20117;-59
2022/02/03 15:36:36;;;;;;;;;;;;;;;-144.99;100.00;52576.50;5091568;28;20439;-59
2022/02/03 15:39:10;;;;;;;;;;;;;;;-144.99;100.00;52554.09;5091782;28;20137;-60
2022/02/03 15:41:40;;;;;;;;;;;;;;;-144.99;100.00;52521.47;5078833;28;19960;-60
2022/02/03 15:44:23;;;;;;;;;;;;;;;-144.99;100.00;52554.09;5091739;28;19987;-60
2022/02/03 15:47:00;;;;;;;;;;;;;;;-144.99;100.00;52545.94;5091612;28;19969;-59
2022/02/03 15:49:59;;;;;;;;;;;;;;;-144.99;100.00;52590.78;5086252;28;19950;-59
2022/02/03 15:58:45;;;;;;;;;;;;;;;-144.99;100.00;52572.44;5013232;28;19999;-67
2022/02/03 16:04:02;;;;;;;;;;;;;;;-144.99;100.00;52570.38;4970868;28;19972;-67
2022/02/03 16:17:37;;;;;;;;;;;;;;;-144.99;100.00;52598.94;5006103;28;20414;-66
2022/02/03 16:20:05;;;;;;;;;;;;;;;-144.99;100.00;52550.00;5043720;28;20429;-66
2022/02/03 16:22:42;;;;;;;;;;;;;;;-144.99;100.00;52586.69;5039216;28;19980;-70
2022/02/03 16:25:21;;;;;;;;;;;;;;;-144.99;100.00;52594.84;5029594;28;20428;-70
2022/02/03 16:50:30;;;;;;;;;;;;;;;-144.99;100.00;52590.78;5150348;27;19956;-69
2022/02/03 16:52:58;;;;;;;;;;;;;;;-144.99;100.00;52590.78;5151146;27;20062;-70
2022/02/03 16:55:27;;;;;;;;;;;;;;;-144.99;100.00;52584.66;5150077;27;19961;-71
2022/02/03 16:57:56;;;;;;;;;;;;;;;-144.99;100.00;52584.66;5150619;27;20485;-70
2022/02/03 17:00:25;;;;;;;;;;;;;;;-144.99;100.00;52570.38;5150144;27;20000;-71
2022/02/03 17:02:51;;;;;;;;;;;;;;;-144.99;100.00;52596.88;5140458;27;20438;-71
2022/02/03 17:05:18;;;;;;;;;;;;;;;-144.99;100.00;52568.34;5128901;27;19952;-69
2022/02/03 17:07:44;;;;;;;;;;;;;;;-144.99;100.00;52566.31;5129557;27;19945;-70
2022/02/03 17:10:10;;;;;;;;;;;;;;;-144.99;100.00;52574.47;5128795;27;19946;-68
2022/02/03 17:12:37;;;;;;;;;;;;;;;-144.99;100.00;52574.47;5130233;27;20450;-71
2022/02/03 17:15:04;;;;;;;;;;;;;;;-144.99;100.00;52574.47;5129834;27;19957;-70
2022/02/03 17:17:32;;;;;;;;;;;;;;;-144.99;100.00;52566.31;5129953;27;20007;-70
2022/02/03 17:19:58;;;;;;;;;;;;;;;-144.99;100.00;52570.38;5128691;27;20301;-69
2022/02/03 17:22:31;;;;;;;;;;;;;;;-144.99;100.00;52607.09;5129848;27;19961;-69
2022/02/03 17:25:05;;;;;;;;;;;;;;;-144.99;100.00;52584.66;5147604;27;20085;-71
2022/02/03 17:27:37;;;;;;;;;;;;;;;-144.99;100.00;52560.19;5154646;27;19950;-71
2022/02/03 17:30:09;;;;;;;;;;;;;;;-144.99;100.00;52586.69;5158182;27;20074;-71
2022/02/03 18:03:06;;;;;;;;;;;;;;;-144.99;100.00;52541.84;5089214;28;19977;-69
2022/02/03 18:11:25;;;;;;;;;;;;;;;-144.99;100.00;52603.00;5023789;28;19968;-68
2022/02/03 18:19:47;;;;;;;;;;;;;;;-144.99;100.00;52554.09;5109061;28;19961;-73
2022/02/03 18:30:27;;;;;;;;;;;;;;;-144.99;100.00;52586.69;5106719;28;20008;-70
2022/02/03 18:36:01;;;;;;;;;;;;;;;-144.99;100.00;52619.31;5100761;28;19976;-71
2022/02/03 18:49:57;;;;;;;;;;;;;;;-144.99;100.00;52580.59;5101808;28;19963;-71
2022/02/03 18:52:28;;;;;;;;;;;;;;;-144.99;100.00;52570.38;5100670;28;19979;-70
2022/02/03 18:55:12;;;;;;;;;;;;;;;-144.99;100.00;52562.25;5104209;28;19959;-70
2022/02/03 18:57:47;;;;;;;;;;;;;;;-144.99;100.00;52570.38;5102535;28;19990;-71
2022/02/03 19:00:49;;;;;;;;;;;;;;;-144.99;100.00;52574.47;5116645;28;19957;-72
2022/02/03 19:14:48;;;;;;;;;;;;;;;-144.99;100.00;52611.16;5073892;28;20001;-71
2022/02/03 20:01:53;;;;;;;;;;;;;;;-144.99;100.00;52574.47;5084336;28;19959;-69
2022/02/03 20:07:13;;;;;;;;;;;;;;;-144.99;100.00;52570.38;5117176;28;19950;-71
2022/02/03 20:12:21;;;;;;;;;;;;;;;-144.99;100.00;52590.78;5094530;28;20500;-70
2022/02/03 20:14:49;;;;;;;;;;;;;;;-144.99;100.00;52562.25;5102988;28;19965;-69
2022/02/03 20:17:18;;;;;;;;;;;;;;;-144.99;100.00;52556.13;5105616;28;19980;-70
2022/02/03 20:19:45;;;;;;;;;;;;;;;-144.99;100.00;52574.47;5103315;28;19979;-70
2022/02/03 20:22:11;;;;;;;;;;;;;;;-144.99;100.00;52578.53;5098586;28;19950;-71
2022/02/03 20:24:38;;;;;;;;;;;;;;;-144.99;100.00;52603.00;5112826;28;20201;-71
2022/02/03 20:27:06;;;;;;;;;;;;;;;-144.99;100.00;52570.38;5124538;28;19946;-71
2022/02/03 20:29:33;;;;;;;;;;;;;;;-144.99;100.00;52598.94;5124766;28;19954;-70
2022/02/03 20:32:02;;;;;;;;;;;;;;;-144.99;100.00;52574.47;5127157;28;20040;-70
2022/02/03 20:34:28;;;;;;;;;;;;;;;-144.99;100.00;52582.63;5119224;28;19959;-70
2022/02/03 20:36:54;;;;;;;;;;;;;;;-144.99;100.00;52578.53;5104112;28;19969;-71
2022/02/03 20:39:21;;;;;;;;;;;;;;;-144.99;100.00;52590.78;5092384;28;19954;-69
2022/02/03 20:41:47;;;;;;;;;;;;;;;-144.99;100.00;52586.69;5093020;28;19951;-69
2022/02/03 20:44:15;;;;;;;;;;;;;;;-144.99;100.00;52590.78;5091954;28;20003;-71
2022/02/03 20:46:42;;;;;;;;;;;;;;;-144.99;100.00;52619.31;5092437;28;19951;-69
2022/02/03 20:49:08;;;;;;;;;;;;;;;-144.99;100.00;52562.25;5092144;28;19964;-70